createdAt,value
2018-05-26T00:01:05.085Z,20.33
2018-05-26T00:03:32.526Z,18.17
2018-05-26T00:05:59.974Z,15.17
2018-05-26T00:08:27.470Z,16.50
2018-05-26T00:10:56.619Z,16.63
2018-05-26T00:13:24.071Z,18.30
2018-05-26T00:15:51.535Z,16.73
2018-05-26T00:18:19.741Z,16.03
2018-05-26T00:20:47.182Z,14.80
2018-05-26T00:23:14.623Z,16.30
2018-05-26T00:25:42.066Z,16.27
2018-05-26T00:28:09.526Z,15.90
2018-05-26T00:30:36.975Z,15.53
2018-05-26T00:33:04.431Z,14.30
2018-05-26T00:35:31.876Z,16.43
2018-05-26T00:37:59.317Z,21.50
2018-05-26T00:40:26.753Z,21.77
2018-05-26T00:42:54.205Z,20.80
2018-05-26T00:45:22.423Z,20.73
2018-05-26T00:47:49.878Z,27.23
2018-05-26T00:50:17.333Z,23.40
2018-05-26T00:52:44.794Z,25.43
2018-05-26T00:55:12.248Z,28.03
2018-05-26T00:57:39.678Z,23.13
2018-05-26T01:00:07.896Z,29.40
2018-05-26T01:02:35.341Z,23.30
2018-05-26T01:05:02.779Z,21.27
2018-05-26T01:07:30.231Z,22.70
2018-05-26T01:09:57.705Z,22.83
2018-05-26T01:12:25.158Z,21.70
2018-05-26T01:14:52.598Z,22.57
2018-05-26T01:17:20.837Z,24.80
2018-05-26T01:19:48.285Z,23.77
2018-05-26T01:22:15.742Z,22.27
2018-05-26T01:24:43.210Z,26.93
2018-05-26T01:27:11.426Z,26.97
2018-05-26T01:29:39.780Z,22.60
2018-05-26T01:32:07.243Z,24.33
2018-05-26T01:34:34.683Z,21.60
2018-05-26T01:37:02.141Z,22.10
2018-05-26T01:39:30.367Z,20.77
2018-05-26T01:41:57.825Z,25.00
2018-05-26T01:44:25.282Z,22.50
2018-05-26T01:46:52.735Z,22.70
2018-05-26T01:49:20.951Z,23.80
2018-05-26T01:51:48.402Z,24.60
2018-05-26T01:54:15.858Z,24.90
2018-05-26T01:56:43.304Z,29.97
2018-05-26T01:59:10.746Z,23.20
2018-05-26T02:01:38.194Z,21.07
2018-05-26T02:04:05.652Z,22.37
2018-05-26T02:06:33.864Z,25.00
2018-05-26T02:09:01.319Z,25.80
2018-05-26T02:11:28.775Z,22.23
2018-05-26T02:13:56.236Z,20.00
2018-05-26T02:16:24.454Z,23.53
2018-05-26T02:18:51.904Z,23.70
2018-05-26T02:21:19.348Z,23.50
2018-05-26T02:23:46.811Z,21.80
2018-05-26T02:26:14.263Z,20.60
2018-05-26T02:28:41.722Z,19.77
2018-05-26T02:31:09.934Z,20.67
2018-05-26T02:33:37.678Z,23.33
2018-05-26T02:36:05.148Z,22.43
2018-05-26T02:38:32.604Z,23.37
2018-05-26T02:41:00.061Z,21.03
2018-05-26T02:43:28.286Z,20.90
2018-05-26T02:45:55.736Z,20.50
2018-05-26T02:48:23.197Z,21.03
2018-05-26T02:50:50.630Z,20.27
2018-05-26T02:53:18.078Z,24.00
2018-05-26T02:55:45.536Z,23.00
2018-05-26T02:58:13.771Z,22.00
2018-05-26T03:00:41.208Z,21.40
2018-05-26T03:03:08.646Z,20.37
2018-05-26T03:05:41.745Z,21.83
2018-05-26T03:08:14.929Z,18.37
2018-05-26T03:10:48.059Z,21.70
2018-05-26T03:13:21.325Z,22.07
2018-05-26T03:15:57.370Z,21.30
2018-05-26T03:18:24.830Z,21.07
2018-05-26T03:20:52.277Z,22.10
2018-05-26T03:23:19.726Z,20.57
2018-05-26T03:25:47.191Z,22.50
2018-05-26T03:28:14.630Z,20.73
2018-05-26T03:30:42.094Z,19.27
2018-05-26T03:33:10.400Z,21.27
2018-05-26T03:35:37.842Z,22.40
2018-05-26T03:38:05.298Z,22.33
2018-05-26T03:40:32.759Z,20.80
2018-05-26T03:43:00.201Z,20.77
2018-05-26T03:45:27.843Z,22.57
2018-05-26T03:47:55.285Z,25.23
2018-05-26T03:50:22.741Z,22.63
2018-05-26T03:52:50.183Z,21.83
2018-05-26T03:55:38.222Z,22.53
2018-05-26T03:58:18.500Z,18.83
2018-05-26T04:00:45.956Z,24.70
2018-05-26T04:03:13.398Z,21.80
2018-05-26T04:05:40.837Z,24.17
2018-05-26T04:08:08.279Z,22.13
2018-05-26T04:10:35.737Z,23.30
2018-05-26T04:13:04.000Z,25.57
2018-05-26T04:15:31.450Z,27.23
2018-05-26T04:17:58.901Z,24.27
2018-05-26T04:20:26.345Z,23.73
2018-05-26T04:22:53.817Z,25.37
2018-05-26T04:25:21.277Z,28.50
2018-05-26T04:27:48.746Z,28.40
2018-05-26T04:30:16.207Z,26.07
2018-05-26T04:32:43.669Z,24.87
2018-05-26T04:35:11.134Z,25.93
2018-05-26T04:37:39.365Z,25.20
2018-05-26T04:40:06.824Z,25.27
2018-05-26T04:42:35.046Z,26.40
2018-05-26T04:45:02.483Z,24.03
2018-05-26T04:47:29.941Z,25.37
2018-05-26T04:49:57.397Z,23.80
2018-05-26T04:52:24.858Z,25.97
2018-05-26T04:54:53.094Z,23.30
2018-05-26T04:57:20.543Z,30.53
2018-05-26T04:59:47.973Z,25.57
2018-05-26T05:02:15.417Z,27.47
2018-05-26T05:04:42.866Z,23.50
2018-05-26T05:07:10.330Z,23.90
2018-05-26T05:09:37.770Z,23.67
2018-05-26T05:12:06.010Z,28.17
2018-05-26T05:14:33.450Z,22.27
2018-05-26T05:17:01.012Z,23.63
2018-05-26T05:19:28.413Z,22.27
2018-05-26T05:21:56.667Z,20.53
2018-05-26T05:24:24.186Z,22.07
2018-05-26T05:26:51.714Z,21.77
2018-05-26T05:29:19.078Z,21.87
2018-05-26T05:31:46.523Z,19.57
2018-05-26T05:34:13.978Z,29.77
2018-05-26T05:36:41.422Z,18.77
2018-05-26T05:39:08.884Z,21.50
2018-05-26T05:41:36.330Z,20.30
2018-05-26T05:44:03.785Z,20.07
2018-05-26T05:46:31.242Z,18.30
2018-05-26T05:48:58.682Z,18.87
2018-05-26T05:51:26.137Z,17.70
2018-05-26T05:53:54.354Z,15.37
2018-05-26T05:56:21.888Z,16.60
2018-05-26T05:58:49.282Z,19.10
2018-05-26T06:01:16.734Z,16.30
2018-05-26T06:03:44.190Z,16.57
2018-05-26T06:06:12.387Z,18.43
2018-05-26T06:08:39.875Z,17.70
2018-05-26T06:11:07.313Z,16.03
2018-05-26T06:13:34.769Z,17.27
2018-05-26T06:16:02.985Z,14.27
2018-05-26T06:18:30.444Z,14.20
2018-05-26T06:20:57.912Z,16.93
2018-05-26T06:23:26.117Z,14.00
2018-05-26T06:25:53.566Z,12.57
2018-05-26T06:28:21.112Z,17.20
2018-05-26T06:30:48.552Z,13.10
2018-05-26T06:33:16.021Z,15.60
2018-05-26T06:35:43.497Z,14.40
2018-05-26T06:38:10.948Z,13.57
2018-05-26T06:40:39.133Z,14.90
2018-05-26T06:43:06.587Z,15.07
2018-05-26T06:45:34.085Z,15.27
2018-05-26T06:48:01.541Z,16.63
2018-05-26T06:50:28.983Z,16.87
2018-05-26T06:52:56.425Z,18.03
2018-05-26T06:55:23.865Z,16.13
2018-05-26T06:57:51.317Z,18.60
2018-05-26T07:00:18.799Z,17.37
2018-05-26T07:02:46.605Z,15.90
2018-05-26T07:05:14.805Z,16.77
2018-05-26T07:07:42.270Z,16.17
2018-05-26T07:10:09.745Z,16.73
2018-05-26T07:12:37.186Z,16.40
2018-05-26T07:15:05.415Z,15.17
2018-05-26T07:17:32.866Z,15.97
2018-05-26T07:20:00.305Z,15.90
2018-05-26T07:22:27.758Z,16.63
2018-05-26T07:24:55.197Z,14.80
2018-05-26T07:27:22.658Z,18.07
2018-05-26T07:29:50.873Z,15.83
2018-05-26T07:32:18.306Z,17.10
2018-05-26T07:34:45.750Z,17.87
2018-05-26T07:37:13.250Z,18.23
2018-05-26T07:39:41.465Z,16.90
2018-05-26T07:42:08.922Z,16.40
2018-05-26T07:44:36.373Z,15.50
2018-05-26T07:47:03.839Z,15.43
2018-05-26T07:49:32.046Z,17.77
2018-05-26T07:51:59.523Z,15.27
2018-05-26T07:54:26.957Z,15.73
2018-05-26T07:56:54.411Z,15.10
2018-05-26T07:59:21.859Z,13.13
2018-05-26T08:01:50.093Z,15.87
2018-05-26T08:04:17.539Z,14.90
2018-05-26T08:06:44.982Z,15.20
2018-05-26T08:09:12.923Z,14.20
2018-05-26T08:11:40.371Z,13.80
2018-05-26T08:14:07.830Z,14.27
2018-05-26T08:16:35.272Z,12.30
2018-05-26T08:19:02.725Z,19.00
2018-05-26T08:21:30.164Z,14.53
2018-05-26T08:23:57.664Z,12.50
2018-05-26T08:26:25.103Z,13.30
2018-05-26T08:28:52.559Z,13.27
2018-05-26T08:31:20.015Z,13.67
2018-05-26T08:33:47.549Z,10.60
2018-05-26T08:36:14.918Z,11.67
2018-05-26T08:38:42.364Z,12.03
2018-05-26T08:41:09.820Z,12.03
2018-05-26T08:43:37.262Z,13.67
2018-05-26T08:46:05.490Z,11.80
2018-05-26T08:48:32.947Z,12.37
2018-05-26T08:51:00.398Z,11.37
2018-05-26T08:53:27.855Z,25.50
2018-05-26T08:55:56.071Z,13.60
2018-05-26T08:58:23.518Z,9.53
2018-05-26T09:00:50.978Z,11.00
2018-05-26T09:03:18.450Z,13.67
2018-05-26T09:05:46.683Z,10.30
2018-05-26T09:08:14.141Z,9.70
2018-05-26T09:10:41.595Z,11.47
2018-05-26T09:13:09.819Z,9.57
2018-05-26T09:15:37.262Z,10.53
2018-05-26T09:18:04.724Z,8.47
2018-05-26T09:20:32.190Z,7.47
2018-05-26T09:23:00.398Z,6.87
2018-05-26T09:25:27.900Z,6.67
2018-05-26T09:27:55.304Z,7.30
2018-05-26T09:30:22.747Z,12.13
2018-05-26T09:32:50.203Z,10.20
2018-05-26T09:35:17.634Z,7.17
2018-05-26T09:37:45.082Z,5.53
2018-05-26T09:40:12.591Z,6.90
2018-05-26T09:42:40.019Z,4.63
2018-05-26T09:45:07.507Z,6.20
2018-05-26T09:47:34.947Z,6.53
2018-05-26T09:50:02.386Z,5.33
2018-05-26T09:52:29.838Z,4.87
2018-05-26T09:54:57.313Z,5.37
2018-05-26T09:57:25.515Z,5.97
2018-05-26T09:59:52.946Z,6.80
2018-05-26T10:02:20.381Z,4.60
2018-05-26T10:04:47.829Z,5.00
2018-05-26T10:07:15.283Z,4.87
2018-05-26T10:09:42.736Z,7.60
2018-05-26T10:12:10.158Z,4.90
2018-05-26T10:14:37.590Z,4.60
2018-05-26T10:17:05.026Z,4.20
2018-05-26T10:19:32.466Z,5.40
2018-05-26T10:21:59.923Z,6.27
2018-05-26T10:24:27.382Z,4.60
2018-05-26T10:26:54.812Z,6.63
2018-05-26T10:29:22.256Z,4.40
2018-05-26T10:31:50.123Z,4.50
2018-05-26T10:34:17.985Z,5.07
2018-05-26T10:36:45.413Z,5.23
2018-05-26T10:39:12.872Z,6.77
2018-05-26T10:41:40.318Z,4.93
2018-05-26T10:44:07.790Z,4.20
2018-05-26T10:46:35.982Z,5.00
2018-05-26T10:49:03.445Z,4.90
2018-05-26T10:51:30.898Z,5.50
2018-05-26T10:53:58.354Z,4.73
2018-05-26T10:56:25.801Z,5.77
2018-05-26T10:58:53.321Z,4.43
2018-05-26T11:01:20.731Z,4.00
2018-05-26T11:03:48.172Z,3.40
2018-05-26T11:06:15.623Z,3.67
2018-05-26T11:08:43.066Z,4.13
2018-05-26T11:11:10.498Z,4.50
2018-05-26T11:13:37.929Z,3.37
2018-05-26T11:16:06.176Z,3.57
2018-05-26T11:18:34.051Z,4.10
2018-05-26T11:21:02.247Z,2.97
2018-05-26T11:23:29.682Z,3.13
2018-05-26T11:25:57.127Z,3.87
2018-05-26T11:28:24.579Z,3.37
2018-05-26T11:30:52.034Z,3.70
2018-05-26T11:33:19.476Z,4.37
2018-05-26T11:35:46.918Z,5.03
2018-05-26T11:38:14.361Z,3.20
2018-05-26T11:40:41.806Z,3.60
2018-05-26T11:43:09.244Z,9.40
2018-05-26T11:45:36.688Z,4.23
2018-05-26T11:48:04.158Z,4.27
2018-05-26T11:50:31.602Z,9.03
2018-05-26T11:52:59.086Z,3.60
2018-05-26T11:55:26.531Z,4.00
2018-05-26T11:57:53.958Z,3.47
2018-05-26T12:00:21.410Z,3.13
2018-05-26T12:02:48.874Z,4.20
2018-05-26T12:05:16.330Z,3.67
2018-05-26T12:07:43.770Z,3.87
2018-05-26T12:10:11.206Z,3.63
2018-05-26T12:12:38.643Z,3.70
2018-05-26T12:15:06.078Z,6.37
2018-05-26T12:17:33.511Z,4.87
2018-05-26T12:20:00.962Z,4.27
2018-05-26T12:22:28.409Z,4.20
2018-05-26T12:24:55.866Z,6.50
2018-05-26T12:27:23.347Z,4.53
2018-05-26T12:29:50.742Z,4.40
2018-05-26T12:32:18.193Z,7.70
2018-05-26T12:34:45.624Z,4.80
2018-05-26T12:37:13.062Z,4.07
2018-05-26T12:39:40.530Z,4.20
2018-05-26T12:42:08.025Z,4.40
2018-05-26T12:44:36.255Z,5.30
2018-05-26T12:47:03.702Z,4.00
2018-05-26T12:49:31.162Z,6.07
2018-05-26T12:51:59.372Z,3.80
2018-05-26T12:54:26.814Z,5.20
2018-05-26T12:56:54.250Z,5.07
2018-05-26T12:59:22.474Z,4.27
2018-05-26T13:01:49.934Z,4.20
2018-05-26T13:04:17.389Z,4.20
2018-05-26T13:06:44.825Z,3.93
2018-05-26T13:09:12.267Z,4.63
2018-05-26T13:11:39.725Z,3.57
2018-05-26T13:14:07.170Z,4.03
2018-05-26T13:16:34.606Z,3.87
2018-05-26T13:19:02.056Z,3.80
2018-05-26T13:21:29.588Z,3.47
2018-05-26T13:23:57.076Z,3.20
2018-05-26T13:26:24.540Z,3.20
2018-05-26T13:28:52.748Z,3.03
2018-05-26T13:31:20.236Z,3.57
2018-05-26T13:33:47.663Z,4.70
2018-05-26T13:36:15.165Z,4.17
2018-05-26T13:38:42.617Z,3.47
2018-05-26T13:41:10.080Z,3.93
2018-05-26T13:43:37.559Z,3.77
2018-05-26T13:46:05.766Z,4.90
2018-05-26T13:48:33.977Z,3.77
2018-05-26T13:51:01.504Z,3.47
2018-05-26T13:53:29.052Z,3.90
2018-05-26T13:55:56.489Z,3.90
2018-05-26T13:58:23.968Z,4.43
2018-05-26T14:00:51.425Z,4.60
2018-05-26T14:03:18.891Z,4.47
2018-05-26T14:05:46.322Z,4.57
2018-05-26T14:08:13.795Z,3.77
2018-05-26T14:10:41.267Z,5.20
2018-05-26T14:13:08.709Z,3.67
2018-05-26T14:15:36.934Z,4.20
2018-05-26T14:18:04.402Z,4.70
2018-05-26T14:20:32.631Z,4.50
2018-05-26T14:23:00.080Z,7.50
2018-05-26T14:28:02.116Z,5.60
2018-05-26T14:30:29.560Z,4.00
2018-05-26T14:32:57.020Z,5.63
2018-05-26T14:35:26.761Z,4.47
2018-05-26T14:37:54.962Z,4.43
2018-05-26T14:40:22.499Z,4.20
2018-05-26T14:42:49.917Z,4.70
2018-05-26T14:45:17.373Z,3.70
2018-05-26T14:47:44.802Z,4.17
2018-05-26T14:50:12.250Z,3.97
2018-05-26T14:52:39.678Z,3.87
2018-05-26T14:55:07.887Z,4.77
2018-05-26T14:57:35.316Z,3.57
2018-05-26T15:00:02.755Z,5.63
2018-05-26T15:02:30.187Z,3.80
2018-05-26T15:04:57.631Z,3.83
2018-05-26T15:07:25.076Z,4.27
2018-05-26T15:09:52.505Z,4.63
2018-05-26T15:12:19.946Z,3.63
2018-05-26T15:14:47.394Z,3.43
2018-05-26T15:17:14.834Z,3.13
2018-05-26T15:19:42.318Z,3.40
2018-05-26T15:22:09.780Z,4.20
2018-05-26T15:24:37.250Z,4.30
2018-05-26T15:27:05.446Z,4.83
2018-05-26T15:29:32.880Z,4.03
2018-05-26T15:32:00.328Z,3.43
2018-05-26T15:34:27.762Z,3.37
2018-05-26T15:36:55.212Z,3.63
2018-05-26T15:39:22.658Z,4.13
2018-05-26T15:41:50.112Z,3.70
2018-05-26T15:44:17.552Z,4.47
2018-05-26T15:46:44.989Z,5.03
2018-05-26T15:49:12.438Z,3.20
2018-05-26T15:51:39.875Z,3.53
2018-05-26T15:54:07.350Z,4.00
2018-05-26T15:56:34.761Z,10.53
2018-05-26T15:59:02.219Z,3.90
2018-05-26T16:01:29.667Z,4.17
2018-05-26T16:03:57.139Z,4.40
2018-05-26T16:06:25.347Z,5.30
2018-05-26T16:08:52.789Z,4.83
2018-05-26T16:11:20.233Z,3.87
2018-05-26T16:13:47.668Z,3.67
2018-05-26T16:16:15.129Z,3.40
2018-05-26T16:18:42.573Z,3.80
2018-05-26T16:21:10.044Z,3.90
2018-05-26T16:23:37.497Z,4.77
2018-05-26T16:26:05.772Z,3.70
2018-05-26T16:28:33.987Z,3.87
2018-05-26T16:31:01.427Z,4.00
2018-05-26T16:33:28.882Z,5.07
2018-05-26T16:35:56.337Z,8.30
2018-05-26T16:38:23.799Z,4.43
2018-05-26T16:40:51.994Z,4.77
2018-05-26T16:43:19.452Z,4.07
2018-05-26T16:45:46.923Z,4.70
2018-05-26T16:48:14.362Z,4.70
2018-05-26T16:50:41.832Z,10.23
2018-05-26T16:53:10.025Z,5.47
2018-05-26T16:55:37.466Z,4.30
2018-05-26T16:58:04.910Z,7.47
2018-05-26T17:00:32.378Z,7.93
2018-05-26T17:02:59.835Z,5.40
2018-05-26T17:05:27.278Z,7.20
2018-05-26T17:07:54.730Z,6.63
2018-05-26T17:10:22.212Z,3.97
2018-05-26T17:12:49.643Z,3.37
2018-05-26T17:15:17.527Z,3.43
2018-05-26T17:17:44.979Z,4.60
2018-05-26T17:20:12.442Z,3.93
2018-05-26T17:22:40.622Z,4.10
2018-05-26T17:25:08.659Z,3.90
2018-05-26T17:27:36.116Z,3.30
2018-05-26T17:30:03.569Z,4.10
2018-05-26T17:32:31.778Z,4.10
2018-05-26T17:34:59.242Z,4.73
2018-05-26T17:37:26.687Z,3.60
2018-05-26T17:39:54.169Z,3.77
2018-05-26T17:42:21.616Z,3.70
2018-05-26T17:44:49.065Z,3.90
2018-05-26T17:47:16.509Z,4.00
2018-05-26T17:49:43.954Z,4.30
2018-05-26T17:52:11.424Z,4.60
2018-05-26T17:54:38.868Z,4.80
2018-05-26T17:57:06.323Z,4.40
2018-05-26T17:59:33.764Z,4.30
2018-05-26T18:02:01.218Z,3.47
2018-05-26T18:04:28.662Z,3.17
2018-05-26T18:06:56.120Z,3.80
2018-05-26T18:09:23.559Z,4.57
2018-05-26T18:11:51.004Z,4.13
2018-05-26T18:14:18.438Z,3.93
2018-05-26T18:16:45.881Z,4.20
2018-05-26T18:19:13.318Z,4.00
2018-05-26T18:21:40.787Z,4.50
2018-05-26T18:24:08.986Z,4.70
2018-05-26T18:26:36.446Z,4.77
2018-05-26T18:29:03.880Z,6.83
2018-05-26T18:31:31.322Z,7.30
2018-05-26T18:33:58.791Z,6.70
2018-05-26T18:36:26.243Z,6.50
2018-05-26T18:38:53.695Z,7.13
2018-05-26T18:41:21.185Z,6.47
2018-05-26T18:43:48.622Z,7.47
2018-05-26T18:46:16.071Z,6.57
2018-05-26T18:48:43.519Z,7.00
2018-05-26T18:51:10.938Z,6.73
2018-05-26T18:53:38.375Z,6.23
2018-05-26T18:56:05.821Z,6.87
2018-05-26T18:58:33.274Z,7.13
2018-05-26T19:01:00.730Z,6.53
2018-05-26T19:03:28.173Z,8.97
2018-05-26T19:05:55.629Z,6.33
2018-05-26T19:08:23.049Z,6.17
2018-05-26T19:10:50.479Z,5.87
2018-05-26T19:13:17.942Z,5.37
2018-05-26T19:15:45.422Z,6.50
2018-05-26T19:18:12.864Z,5.90
2018-05-26T19:20:40.298Z,5.53
2018-05-26T19:23:07.728Z,6.03
2018-05-26T19:25:35.166Z,7.83
2018-05-26T19:28:02.642Z,5.63
2018-05-26T19:30:30.080Z,7.17
2018-05-26T19:32:57.518Z,6.97
2018-05-26T19:35:24.983Z,7.03
2018-05-26T19:37:53.210Z,5.20
2018-05-26T19:40:20.656Z,6.83
2018-05-26T19:42:48.731Z,7.87
2018-05-26T19:45:16.190Z,8.90
2018-05-26T19:47:43.669Z,8.50
2018-05-26T19:50:11.126Z,9.53
2018-05-26T19:52:38.554Z,8.70
2018-05-26T19:55:06.009Z,8.23
2018-05-26T19:57:33.469Z,8.23
2018-05-26T20:00:00.924Z,7.73
2018-05-26T20:02:28.381Z,8.43
2018-05-26T20:04:55.814Z,9.87
2018-05-26T20:07:23.281Z,9.83
2018-05-26T20:09:51.490Z,9.60
2018-05-26T20:12:18.958Z,8.83
2018-05-26T20:14:46.406Z,9.83
2018-05-26T20:17:13.851Z,10.33
2018-05-26T20:19:41.309Z,9.30
2018-05-26T20:22:08.808Z,9.57
2018-05-26T20:24:36.275Z,10.00
2018-05-26T20:27:03.726Z,10.30
2018-05-26T20:29:31.185Z,10.77
2018-05-26T20:31:59.387Z,9.13
2018-05-26T20:34:26.850Z,8.50
2018-05-26T20:36:54.286Z,9.03
2018-05-26T20:39:21.724Z,9.73
2018-05-26T20:41:49.182Z,10.10
2018-05-26T20:44:16.637Z,10.07
2018-05-26T20:46:44.094Z,9.87
2018-05-26T20:49:11.559Z,13.40
2018-05-26T20:51:39.788Z,11.17
2018-05-26T20:54:07.218Z,12.37
2018-05-26T20:56:34.714Z,12.37
2018-05-26T20:59:02.146Z,12.00
2018-05-26T21:01:29.590Z,12.97
2018-05-26T21:03:57.086Z,12.53
2018-05-26T21:06:24.549Z,19.20
2018-05-26T21:08:51.991Z,12.33
2018-05-26T21:11:19.450Z,18.00
2018-05-26T21:13:47.721Z,13.07
2018-05-26T21:16:15.930Z,13.10
2018-05-26T21:18:43.389Z,12.77
2018-05-26T21:21:10.873Z,12.93
2018-05-26T21:23:39.078Z,13.07
2018-05-26T21:26:07.404Z,12.13
2018-05-26T21:28:34.856Z,12.57
2018-05-26T21:31:02.315Z,12.30
2018-05-26T21:33:29.770Z,12.40
2018-05-26T21:35:57.209Z,11.73
2018-05-26T21:38:24.657Z,11.50
2018-05-26T21:40:52.126Z,12.37
2018-05-26T21:43:19.583Z,11.50
2018-05-26T21:45:47.799Z,13.53
2018-05-26T21:48:15.241Z,11.20
2018-05-26T21:50:42.687Z,12.10
2018-05-26T21:53:10.142Z,10.93
2018-05-26T21:55:37.580Z,11.43
2018-05-26T21:58:05.045Z,11.53
2018-05-26T22:00:32.479Z,12.37
2018-05-26T22:02:59.921Z,11.87
2018-05-26T22:05:27.358Z,10.83
2018-05-26T22:07:54.819Z,10.23
2018-05-26T22:10:23.022Z,11.70
2018-05-26T22:12:50.470Z,12.77
2018-05-26T22:15:17.912Z,10.57
2018-05-26T22:17:45.362Z,9.80
2018-05-26T22:20:12.798Z,11.30
2018-05-26T22:22:40.252Z,14.13
2018-05-26T22:25:07.699Z,13.00
2018-05-26T22:27:35.155Z,10.20
2018-05-26T22:30:03.357Z,10.90
2018-05-26T22:32:31.607Z,10.87
2018-05-26T22:34:59.806Z,10.23
2018-05-26T22:37:27.260Z,10.60
2018-05-26T22:39:54.702Z,10.97
2018-05-26T22:42:22.158Z,10.70
2018-05-26T22:44:49.607Z,10.43
2018-05-26T22:47:17.064Z,9.40
2018-05-26T22:49:44.522Z,10.23
2018-05-26T22:52:12.729Z,9.83
2018-05-26T22:54:40.187Z,10.77
2018-05-26T22:57:07.670Z,11.13
2018-05-26T22:59:35.119Z,12.17
2018-05-26T23:02:03.354Z,11.13
2018-05-26T23:04:30.819Z,13.23
2018-05-26T23:06:59.111Z,11.10
2018-05-26T23:09:26.547Z,11.27
2018-05-26T23:11:53.994Z,10.93
2018-05-26T23:14:21.451Z,10.50
2018-05-26T23:16:48.908Z,11.13
2018-05-26T23:19:16.369Z,9.37
2018-05-26T23:21:43.827Z,12.60
2018-05-26T23:24:11.283Z,10.13
2018-05-26T23:26:39.494Z,12.80
2018-05-26T23:29:07.099Z,11.40
2018-05-26T23:31:34.418Z,11.47
2018-05-26T23:34:01.883Z,11.83
2018-05-26T23:36:29.344Z,10.97
2018-05-26T23:38:56.786Z,10.77
2018-05-26T23:41:24.251Z,12.43
2018-05-26T23:43:51.693Z,9.90
2018-05-26T23:46:19.174Z,9.73
2018-05-26T23:48:47.081Z,9.93
2018-05-26T23:51:14.536Z,11.10
2018-05-26T23:53:43.046Z,11.47
2018-05-26T23:56:11.241Z,10.97
2018-05-26T23:58:38.706Z,11.07
